Time;durP1;ratioP1;P1;durP2;ratioP2;P2;SDS_P1;SDS_P2;PMS_P1;PMS_P2;Temp;Humidity;BMP_temperature;BMP_pressure;BME280_temperature;BME280_humidity;BME280_pressure;Samples;Min_cycle;Max_cycle;Signal;HPM_P1;HPM_P2
2022/05/07 13:42:11;;;;;;;4.22;1.63;;;;;;;;;;5949462;23;1366795;-83
2022/05/07 13:44:37;;;;;;;5.43;1.70;;;;;;;;;;5989337;23;20459;-83
2022/05/07 13:47:04;;;;;;;4.18;1.75;;;;;;;;;;5970094;24;20325;-82
2022/05/07 13:49:30;;;;;;;4.43;2.30;;;;;;;;;;5985972;24;20004;-83
2022/05/07 13:51:58;;;;;;;5.60;2.65;;;;;;;;;;5961074;24;20347;-83
2022/05/07 13:54:24;;;;;;;4.00;1.52;;;;;;;;;;5961301;24;20008;-84
2022/05/07 13:56:50;;;;;;;7.57;2.05;;;;;;;;;;5961427;24;20100;-83
2022/05/07 13:59:16;;;;;;;3.17;1.35;;;;;;;;;;5961766;24;20067;-82
2022/05/07 14:01:42;;;;;;;4.28;1.40;;;;;;;;;;5960786;24;20496;-82
2022/05/07 14:04:08;;;;;;;3.35;1.42;;;;;;;;;;5961281;24;20005;-82
2022/05/07 14:06:34;;;;;;;2.58;1.40;;;;;;;;;;5986074;24;20008;-83
2022/05/07 14:09:00;;;;;;;3.53;1.60;;;;;;;;;;5986924;24;20148;-83
2022/05/07 14:11:26;;;;;;;3.42;1.50;;;;;;;;;;5986313;24;20004;-83
2022/05/07 14:13:52;;;;;;;4.35;1.42;;;;;;;;;;5985920;24;20332;-83
2022/05/07 14:16:18;;;;;;;2.40;1.20;;;;;;;;;;5961058;24;20004;-83
2022/05/07 14:18:44;;;;;;;4.18;1.63;;;;;;;;;;5961424;24;20004;-83
2022/05/07 14:21:11;;;;;;;4.30;1.80;;;;;;;;;;5985665;24;20011;-82
2022/05/07 14:23:37;;;;;;;3.92;1.45;;;;;;;;;;5985997;24;20043;-82
2022/05/07 14:26:04;;;;;;;3.58;1.55;;;;;;;;;;5961988;24;20028;-82
2022/05/07 14:28:30;;;;;;;5.68;1.40;;;;;;;;;;5963276;24;20008;-83
2022/05/07 14:30:59;;;;;;;3.08;1.38;;;;;;;;;;5962567;24;20052;-83
2022/05/07 14:33:25;;;;;;;3.45;1.20;;;;;;;;;;5963296;24;20448;-83
2022/05/07 14:35:52;;;;;;;5.45;1.40;;;;;;;;;;5962996;24;20008;-83
2022/05/07 14:38:18;;;;;;;4.10;1.40;;;;;;;;;;5963144;24;20018;-83
2022/05/07 14:40:45;;;;;;;4.03;1.63;;;;;;;;;;5987528;24;20057;-83
2022/05/07 14:43:11;;;;;;;4.55;1.70;;;;;;;;;;5963605;24;20095;-83
2022/05/07 14:45:37;;;;;;;3.67;1.45;;;;;;;;;;5962591;24;20009;-83
2022/05/07 14:48:03;;;;;;;5.35;2.08;;;;;;;;;;5964266;24;20031;-83
2022/05/07 14:50:30;;;;;;;4.75;1.95;;;;;;;;;;5966338;24;20000;-83
2022/05/07 14:52:56;;;;;;;5.32;1.60;;;;;;;;;;5963166;24;20075;-83
2022/05/07 14:55:23;;;;;;;5.50;2.75;;;;;;;;;;5965195;24;20099;-84
2022/05/07 14:57:49;;;;;;;5.55;2.83;;;;;;;;;;5963354;24;20000;-83
2022/05/07 15:00:15;;;;;;;4.70;1.90;;;;;;;;;;5962290;24;20015;-83
2022/05/07 15:02:42;;;;;;;4.32;2.10;;;;;;;;;;5962765;24;20348;-83
2022/05/07 15:05:13;;;;;;;3.88;1.67;;;;;;;;;;5987458;24;20015;-84
2022/05/07 15:07:39;;;;;;;3.10;1.45;;;;;;;;;;5963105;24;20004;-84
2022/05/07 15:12:51;;;;;;;6.18;2.10;;;;;;;;;;5988005;24;20071;-84
2022/05/07 15:15:17;;;;;;;4.10;1.85;;;;;;;;;;5987626;24;20008;-84
2022/05/07 15:17:43;;;;;;;3.75;1.50;;;;;;;;;;5963043;24;20015;-84
2022/05/07 15:20:10;;;;;;;4.95;1.63;;;;;;;;;;5962629;24;20036;-84
2022/05/07 15:22:37;;;;;;;3.55;1.58;;;;;;;;;;5962620;24;20012;-83
2022/05/07 15:25:03;;;;;;;3.95;1.60;;;;;;;;;;5987379;24;20010;-84
2022/05/07 15:27:29;;;;;;;6.05;2.90;;;;;;;;;;5962899;24;20000;-83
2022/05/07 15:29:55;;;;;;;4.18;1.98;;;;;;;;;;5962694;24;20135;-84
2022/05/07 15:37:52;;;;;;;3.55;1.58;;;;;;;;;;5988797;24;20045;-84
2022/05/07 15:40:18;;;;;;;3.90;1.77;;;;;;;;;;5963676;24;20092;-84
2022/05/07 15:42:44;;;;;;;3.17;1.38;;;;;;;;;;5963023;24;20091;-84
2022/05/07 15:45:12;;;;;;;5.05;1.52;;;;;;;;;;5962621;24;20061;-84
2022/05/07 15:47:38;;;;;;;4.00;1.77;;;;;;;;;;5962895;24;20343;-84
2022/05/07 15:50:04;;;;;;;4.03;1.70;;;;;;;;;;5962633;24;20409;-84
2022/05/07 15:52:31;;;;;;;3.83;1.80;;;;;;;;;;5962954;24;20055;-84
2022/05/07 15:54:57;;;;;;;5.47;2.30;;;;;;;;;;5962992;24;20019;-84
2022/05/07 15:57:23;;;;;;;5.10;2.55;;;;;;;;;;5962656;24;20008;-83
2022/05/07 15:59:50;;;;;;;4.20;2.25;;;;;;;;;;5963684;24;20027;-84
2022/05/07 16:02:15;;;;;;;4.05;1.85;;;;;;;;;;5961970;24;20056;-83
2022/05/07 16:04:42;;;;;;;4.15;1.80;;;;;;;;;;5987185;24;20083;-83
2022/05/07 16:07:08;;;;;;;4.47;2.00;;;;;;;;;;5962054;24;20000;-83
2022/05/07 16:09:34;;;;;;;5.10;1.90;;;;;;;;;;5962560;24;20340;-84
2022/05/07 16:12:00;;;;;;;3.90;2.13;;;;;;;;;;5962316;24;20423;-84
2022/05/07 16:14:26;;;;;;;6.00;2.00;;;;;;;;;;5962021;24;20020;-83
2022/05/07 16:16:52;;;;;;;4.32;1.75;;;;;;;;;;5987084;24;20008;-84
2022/05/07 16:19:18;;;;;;;4.60;1.88;;;;;;;;;;5962376;24;20188;-83
2022/05/07 16:21:44;;;;;;;5.70;1.95;;;;;;;;;;5962191;24;20008;-83
2022/05/07 16:26:55;;;;;;;4.60;1.83;;;;;;;;;;5986409;24;20031;-83
2022/05/07 16:29:21;;;;;;;3.60;1.60;;;;;;;;;;5962651;24;20428;-83
2022/05/07 16:31:47;;;;;;;2.78;1.25;;;;;;;;;;5961442;24;20017;-83
2022/05/07 16:34:12;;;;;;;3.55;1.73;;;;;;;;;;5963180;24;20027;-84
2022/05/07 16:36:38;;;;;;;3.67;1.63;;;;;;;;;;5964114;24;20067;-84
2022/05/07 16:39:04;;;;;;;2.92;1.50;;;;;;;;;;5963499;24;20440;-84
2022/05/07 16:41:30;;;;;;;4.05;1.95;;;;;;;;;;5987342;24;20008;-83
2022/05/07 16:43:56;;;;;;;5.55;1.60;;;;;;;;;;5963031;24;20103;-84
2022/05/07 16:46:22;;;;;;;3.38;1.58;;;;;;;;;;5963866;24;20004;-84
2022/05/07 16:48:48;;;;;;;4.32;1.90;;;;;;;;;;5963186;24;20004;-83
2022/05/07 16:51:15;;;;;;;4.32;2.40;;;;;;;;;;5987774;24;20075;-84
2022/05/07 16:53:41;;;;;;;3.03;1.42;;;;;;;;;;5970313;24;20012;-84
2022/05/07 16:56:08;;;;;;;4.03;2.00;;;;;;;;;;5970765;24;20028;-84
2022/05/07 16:58:34;;;;;;;4.22;1.98;;;;;;;;;;5976257;24;20008;-84
2022/05/07 17:01:00;;;;;;;5.85;2.30;;;;;;;;;;5992821;24;20012;-85
2022/05/07 17:03:26;;;;;;;44.25;4.85;;;;;;;;;;5966688;24;20039;-86
2022/05/07 17:05:55;;;;;;;8.90;1.70;;;;;;;;;;5991295;24;20029;-90
2022/05/07 17:08:29;;;;;;;7.90;1.70;;;;;;;;;;5969236;24;20021;-92
2022/05/07 17:10:59;;;;;;;9.07;2.42;;;;;;;;;;5966557;24;20107;-91
2022/05/07 17:16:45;;;;;;;6.95;2.75;;;;;;;;;;5903244;24;20010;-80
2022/05/07 17:19:11;;;;;;;21.17;2.15;;;;;;;;;;5953076;24;20087;-84
2022/05/07 17:21:44;;;;;;;14.65;1.90;;;;;;;;;;5990788;24;20004;-85
2022/05/07 17:24:13;;;;;;;12.65;3.03;;;;;;;;;;5966425;24;20087;-85
2022/05/07 17:26:39;;;;;;;18.63;2.92;;;;;;;;;;5965502;24;20438;-84
2022/05/07 17:29:05;;;;;;;17.75;2.95;;;;;;;;;;5964663;24;20007;-82
2022/05/07 17:31:31;;;;;;;12.98;2.63;;;;;;;;;;5967178;24;20032;-85
2022/05/07 17:33:57;;;;;;;8.88;2.17;;;;;;;;;;5967115;24;20042;-85
2022/05/07 17:36:24;;;;;;;11.50;2.38;;;;;;;;;;5965224;24;20038;-83
2022/05/07 17:38:50;;;;;;;11.55;2.90;;;;;;;;;;5965188;24;20008;-82
2022/05/07 17:41:16;;;;;;;11.05;2.35;;;;;;;;;;5965327;24;20068;-80
2022/05/07 17:43:43;;;;;;;11.40;3.22;;;;;;;;;;5964862;24;20036;-80
2022/05/07 17:46:09;;;;;;;13.40;2.50;;;;;;;;;;5988241;24;20005;-81
2022/05/07 17:51:20;;;;;;;10.50;2.50;;;;;;;;;;5990140;24;20056;-83
2022/05/07 17:53:46;;;;;;;13.77;3.40;;;;;;;;;;5988807;24;20012;-82
2022/05/07 17:56:13;;;;;;;15.20;2.95;;;;;;;;;;5964906;24;20015;-85
2022/05/07 17:58:39;;;;;;;17.85;2.67;;;;;;;;;;5964566;24;20030;-84
2022/05/07 18:01:05;;;;;;;26.65;3.17;;;;;;;;;;5991612;24;20516;-86
2022/05/07 18:03:31;;;;;;;15.52;2.63;;;;;;;;;;5991102;24;20008;-84
2022/05/07 18:05:59;;;;;;;10.25;2.55;;;;;;;;;;5961926;24;20010;-85
2022/05/07 18:08:25;;;;;;;16.52;3.38;;;;;;;;;;5964040;24;20019;-84
2022/05/07 18:10:51;;;;;;;13.60;2.92;;;;;;;;;;5987830;24;20598;-82
2022/05/07 18:13:17;;;;;;;11.07;2.72;;;;;;;;;;5964670;24;20008;-81
2022/05/07 18:15:43;;;;;;;20.70;3.65;;;;;;;;;;5963087;24;20004;-82
2022/05/07 18:18:12;;;;;;;20.88;3.88;;;;;;;;;;5980439;24;19996;-83
2022/05/07 18:20:38;;;;;;;19.70;3.65;;;;;;;;;;5986708;24;20011;-82
2022/05/07 18:23:04;;;;;;;19.45;3.33;;;;;;;;;;5988560;24;20001;-80
2022/05/07 18:25:30;;;;;;;15.50;3.03;;;;;;;;;;5987499;24;20023;-82
2022/05/07 18:27:56;;;;;;;14.52;3.45;;;;;;;;;;5963469;24;20008;-80
2022/05/07 18:30:42;;;;;;;28.25;12.48;;;;;;;;;;5961978;24;20048;-82
2022/05/07 18:33:08;;;;;;;27.73;13.32;;;;;;;;;;5987271;24;19997;-81
2022/05/07 18:35:34;;;;;;;159.45;109.47;;;;;;;;;;5961933;24;20008;-80
2022/05/07 18:43:29;;;;;;;123.43;81.97;;;;;;;;;;5987628;23;20026;-82
2022/05/07 18:45:56;;;;;;;115.57;78.90;;;;;;;;;;5969004;24;20072;-83
2022/05/07 18:48:22;;;;;;;115.05;80.30;;;;;;;;;;6000010;24;20020;-84
2022/05/07 18:50:48;;;;;;;116.18;72.45;;;;;;;;;;5966122;24;20008;-81
2022/05/07 18:53:14;;;;;;;106.80;67.80;;;;;;;;;;5962871;24;20012;-79
2022/05/07 18:58:27;;;;;;;99.80;64.43;;;;;;;;;;5986584;24;20019;-80
2022/05/07 19:00:54;;;;;;;93.75;62.20;;;;;;;;;;5965936;24;20217;-81
2022/05/07 19:03:20;;;;;;;93.25;60.03;;;;;;;;;;5966790;24;20457;-80
2022/05/07 19:05:47;;;;;;;90.47;59.30;;;;;;;;;;5965643;24;20092;-81
2022/05/07 19:08:16;;;;;;;90.13;57.90;;;;;;;;;;5965640;24;20008;-81
2022/05/07 19:10:42;;;;;;;82.93;53.35;;;;;;;;;;5968069;24;20009;-80
2022/05/07 19:13:08;;;;;;;90.30;52.72;;;;;;;;;;5991073;24;20420;-81
2022/05/07 19:15:35;;;;;;;87.38;51.50;;;;;;;;;;5967301;24;20466;-84
2022/05/07 19:18:01;;;;;;;73.88;47.65;;;;;;;;;;5966472;24;20008;-80
2022/05/07 19:20:28;;;;;;;79.82;48.75;;;;;;;;;;5965019;24;20004;-82
2022/05/07 19:23:02;;;;;;;76.82;45.60;;;;;;;;;;5965724;24;20059;-82
2022/05/07 19:25:28;;;;;;;73.72;42.35;;;;;;;;;;5965564;24;20451;-82
2022/05/07 19:27:54;;;;;;;67.95;42.95;;;;;;;;;;5965538;24;20004;-81
2022/05/07 19:30:21;;;;;;;67.43;41.67;;;;;;;;;;5965768;24;20034;-83
2022/05/07 19:32:47;;;;;;;68.65;37.97;;;;;;;;;;5966339;24;20095;-83
2022/05/07 19:35:13;;;;;;;68.47;38.25;;;;;;;;;;5965932;24;20008;-82
2022/05/07 19:37:40;;;;;;;72.53;37.40;;;;;;;;;;5966064;24;20448;-82
2022/05/07 19:40:06;;;;;;;67.22;37.83;;;;;;;;;;5964879;24;20023;-81
2022/05/07 19:55:31;;;;;;;48.97;27.30;;;;;;;;;;6028700;23;20015;-82
2022/05/07 19:57:57;;;;;;;42.65;24.65;;;;;;;;;;6045033;23;20063;-82
2022/05/07 20:00:24;;;;;;;43.85;22.90;;;;;;;;;;6019756;23;20044;-82
2022/05/07 20:02:50;;;;;;;40.00;22.70;;;;;;;;;;6045287;23;20011;-83
2022/05/07 20:05:16;;;;;;;44.05;21.40;;;;;;;;;;6020514;23;20025;-81
2022/05/07 20:07:42;;;;;;;36.42;21.70;;;;;;;;;;6021431;23;20007;-78
2022/05/07 20:10:08;;;;;;;36.75;20.00;;;;;;;;;;6043257;23;20007;-78
2022/05/07 20:12:38;;;;;;;43.38;19.92;;;;;;;;;;6048694;23;20003;-79
2022/05/07 20:15:04;;;;;;;36.90;18.10;;;;;;;;;;6020355;23;20469;-79
2022/05/07 20:17:30;;;;;;;38.70;17.42;;;;;;;;;;6045618;23;20003;-81
2022/05/07 20:19:56;;;;;;;41.70;19.17;;;;;;;;;;6023548;23;20015;-80
2022/05/07 20:22:22;;;;;;;36.70;17.70;;;;;;;;;;6045094;23;20007;-80
2022/05/07 20:24:50;;;;;;;35.17;17.58;;;;;;;;;;6045063;23;20003;-80
2022/05/07 20:27:17;;;;;;;32.17;16.13;;;;;;;;;;6021838;23;20007;-80
2022/05/07 20:29:43;;;;;;;33.97;17.83;;;;;;;;;;6023139;23;20026;-80
2022/05/07 20:32:10;;;;;;;30.90;16.00;;;;;;;;;;6022981;23;19999;-79
2022/05/07 20:34:37;;;;;;;31.20;15.68;;;;;;;;;;6022745;23;20015;-79
2022/05/07 20:37:03;;;;;;;29.30;15.52;;;;;;;;;;6021846;23;20014;-80
2022/05/07 20:39:29;;;;;;;14.02;4.40;;;;;;;;;;6022373;23;20014;-81
2022/05/07 20:41:55;;;;;;;15.70;3.22;;;;;;;;;;6016802;23;20459;-78
2022/05/07 20:47:06;;;;;;;12.35;3.03;;;;;;;;;;6046084;23;20018;-79
2022/05/07 20:49:33;;;;;;;11.77;3.72;;;;;;;;;;6048029;23;20130;-83
2022/05/07 20:52:00;;;;;;;15.48;3.05;;;;;;;;;;6020651;23;20010;-83
2022/05/07 20:54:27;;;;;;;11.25;3.03;;;;;;;;;;6022222;23;20011;-82
2022/05/07 20:56:53;;;;;;;10.85;3.45;;;;;;;;;;6019443;23;20010;-82
2022/05/07 20:59:21;;;;;;;13.32;3.65;;;;;;;;;;6019518;23;20008;-84
2022/05/07 21:01:48;;;;;;;15.00;3.90;;;;;;;;;;6018665;23;20031;-84
2022/05/07 21:04:15;;;;;;;12.07;4.88;;;;;;;;;;6019363;23;20022;-85
2022/05/07 21:06:45;;;;;;;11.70;4.95;;;;;;;;;;6025259;23;20023;-85
2022/05/07 21:09:11;;;;;;;19.35;4.70;;;;;;;;;;6024885;23;20110;-85
2022/05/07 21:11:37;;;;;;;15.73;5.63;;;;;;;;;;6045510;23;20011;-85
2022/05/07 21:14:04;;;;;;;13.90;5.47;;;;;;;;;;6020374;23;20094;-85
2022/05/07 21:16:32;;;;;;;14.02;5.50;;;;;;;;;;6020338;23;20094;-85
2022/05/07 21:18:58;;;;;;;16.20;5.60;;;;;;;;;;6019733;23;20067;-85
2022/05/07 21:21:24;;;;;;;14.43;5.22;;;;;;;;;;6042529;23;20003;-85
2022/05/07 21:23:50;;;;;;;11.48;5.28;;;;;;;;;;6017911;23;20059;-85
2022/05/07 21:29:01;;;;;;;16.02;5.47;;;;;;;;;;6043449;23;20015;-86
2022/05/07 21:31:28;;;;;;;15.05;5.00;;;;;;;;;;6017605;23;20003;-85
2022/05/07 21:33:54;;;;;;;13.50;5.78;;;;;;;;;;6018969;23;20067;-85
2022/05/07 21:36:20;;;;;;;11.95;4.68;;;;;;;;;;6018961;23;20062;-85
2022/05/07 21:38:46;;;;;;;10.75;4.40;;;;;;;;;;6019997;23;20391;-85
2022/05/07 21:41:14;;;;;;;17.95;5.00;;;;;;;;;;6018601;23;20008;-85
2022/05/07 21:43:40;;;;;;;12.23;4.57;;;;;;;;;;6019453;23;20023;-85
2022/05/07 21:46:07;;;;;;;14.18;4.57;;;;;;;;;;6018642;23;20008;-85
2022/05/07 21:48:33;;;;;;;13.88;5.03;;;;;;;;;;6019316;23;20003;-85
2022/05/07 21:53:26;;;;;;;11.80;4.00;;;;;;;;;;6045298;23;20018;-85
2022/05/07 21:55:52;;;;;;;16.50;3.97;;;;;;;;;;6018678;23;20355;-85
2022/05/07 21:58:18;;;;;;;14.52;4.50;;;;;;;;;;6043887;23;20070;-85
2022/05/07 22:00:49;;;;;;;11.77;3.80;;;;;;;;;;6017954;23;20034;-85
2022/05/07 22:03:16;;;;;;;10.18;3.97;;;;;;;;;;6045074;23;20051;-85
2022/05/07 22:05:42;;;;;;;8.77;3.63;;;;;;;;;;6019254;23;20003;-85
2022/05/07 22:08:08;;;;;;;11.02;4.00;;;;;;;;;;6020119;23;20008;-85
2022/05/07 22:10:34;;;;;;;10.98;4.20;;;;;;;;;;6017993;23;20316;-85
2022/05/07 22:13:00;;;;;;;9.95;3.83;;;;;;;;;;6018171;23;20038;-85
2022/05/07 22:15:27;;;;;;;15.38;4.05;;;;;;;;;;6018382;23;20402;-85
2022/05/07 22:17:53;;;;;;;11.55;3.60;;;;;;;;;;6043528;23;20019;-85
2022/05/07 22:20:19;;;;;;;13.05;4.40;;;;;;;;;;6042771;23;20074;-85
2022/05/07 22:22:45;;;;;;;8.07;3.17;;;;;;;;;;6017880;23;20458;-85
2022/05/07 22:25:11;;;;;;;10.55;4.53;;;;;;;;;;6017550;23;20008;-85
2022/05/07 22:27:37;;;;;;;10.82;4.20;;;;;;;;;;6017650;23;20003;-85
2022/05/07 22:30:03;;;;;;;14.27;4.15;;;;;;;;;;6016945;23;20003;-85
2022/05/07 22:32:29;;;;;;;10.77;3.95;;;;;;;;;;6042554;23;20046;-85
2022/05/07 22:34:55;;;;;;;11.95;3.92;;;;;;;;;;6017021;23;20443;-85
2022/05/07 22:37:20;;;;;;;8.73;3.55;;;;;;;;;;6017719;23;20011;-85
2022/05/07 22:39:46;;;;;;;8.57;3.42;;;;;;;;;;6041811;23;20359;-85
2022/05/07 22:42:12;;;;;;;8.20;3.40;;;;;;;;;;6016989;23;20015;-85
2022/05/07 22:44:38;;;;;;;10.25;3.90;;;;;;;;;;6017527;23;20007;-85
2022/05/07 22:47:04;;;;;;;7.95;3.42;;;;;;;;;;6018453;23;20008;-85
2022/05/07 22:49:30;;;;;;;8.20;2.90;;;;;;;;;;6019038;23;20400;-85
2022/05/07 22:51:56;;;;;;;11.07;4.03;;;;;;;;;;6043592;23;20007;-85
2022/05/07 22:54:22;;;;;;;10.15;3.35;;;;;;;;;;6018796;23;20015;-85
2022/05/07 22:56:48;;;;;;;10.52;4.00;;;;;;;;;;6044624;23;20059;-85
2022/05/07 22:59:14;;;;;;;9.20;3.38;;;;;;;;;;6018248;23;20011;-85
2022/05/07 23:01:40;;;;;;;10.57;4.15;;;;;;;;;;6018271;23;20063;-85
2022/05/07 23:04:06;;;;;;;12.13;3.78;;;;;;;;;;6044340;23;20007;-85
2022/05/07 23:06:32;;;;;;;11.88;3.33;;;;;;;;;;6019276;23;19999;-85
2022/05/07 23:08:58;;;;;;;8.20;3.05;;;;;;;;;;6018946;23;20008;-85
2022/05/07 23:11:24;;;;;;;10.52;3.58;;;;;;;;;;6017851;23;20008;-86
2022/05/07 23:13:50;;;;;;;8.55;3.35;;;;;;;;;;6043922;23;20316;-84
2022/05/07 23:16:17;;;;;;;13.18;3.00;;;;;;;;;;6043453;23;20015;-85
2022/05/07 23:18:43;;;;;;;9.27;3.35;;;;;;;;;;6018492;23;20090;-85
2022/05/07 23:21:10;;;;;;;8.52;2.88;;;;;;;;;;6017992;23;20038;-85
2022/05/07 23:23:36;;;;;;;8.98;2.95;;;;;;;;;;6018136;23;20008;-85
2022/05/07 23:26:02;;;;;;;8.40;2.97;;;;;;;;;;6018199;23;20002;-85
2022/05/07 23:28:28;;;;;;;8.13;3.22;;;;;;;;;;6018096;23;20003;-85
2022/05/07 23:30:54;;;;;;;7.10;2.88;;;;;;;;;;6017898;23;20007;-85
2022/05/07 23:33:22;;;;;;;7.70;2.80;;;;;;;;;;6018223;23;20011;-85
2022/05/07 23:35:48;;;;;;;7.85;3.15;;;;;;;;;;6043232;23;20489;-85
2022/05/07 23:38:15;;;;;;;10.00;3.22;;;;;;;;;;6018434;23;20506;-85
2022/05/07 23:40:41;;;;;;;9.15;3.22;;;;;;;;;;6018595;23;20003;-85
2022/05/07 23:43:07;;;;;;;8.13;3.10;;;;;;;;;;6019026;23;20013;-85
2022/05/07 23:45:33;;;;;;;8.18;2.58;;;;;;;;;;6044003;23;20007;-85
2022/05/07 23:47:59;;;;;;;8.57;3.08;;;;;;;;;;6019163;23;20035;-85
2022/05/07 23:50:25;;;;;;;8.10;2.85;;;;;;;;;;6018691;23;20010;-85
2022/05/07 23:52:53;;;;;;;9.77;2.55;;;;;;;;;;6017854;23;20447;-85
2022/05/07 23:55:19;;;;;;;7.95;2.65;;;;;;;;;;6018024;23;20042;-85
2022/05/07 23:57:45;;;;;;;9.05;2.58;;;;;;;;;;6017878;23;20063;-85
